createdAt,value
2024-03-02T00:00:22.448Z,0.70
2024-03-02T00:03:15.667Z,0.90
2024-03-02T00:06:02.285Z,0.70
2024-03-02T00:08:48.574Z,1.05
2024-03-02T00:11:36.279Z,1.42
2024-03-02T00:14:22.823Z,1.23
2024-03-02T00:17:26.220Z,2.05
2024-03-02T00:20:15.973Z,1.67
2024-03-02T00:23:06.123Z,1.95
2024-03-02T00:25:57.084Z,1.50
2024-03-02T00:28:46.563Z,2.80
2024-03-02T00:31:33.284Z,2.25
2024-03-02T00:34:19.602Z,2.20
2024-03-02T00:37:05.822Z,1.70
2024-03-02T00:39:52.124Z,1.75
2024-03-02T00:42:38.363Z,2.25
2024-03-02T00:45:26.166Z,2.38
2024-03-02T00:48:16.561Z,1.42
2024-03-02T00:51:04.759Z,1.45
2024-03-02T00:53:52.041Z,2.50
2024-03-02T00:56:37.968Z,2.22
2024-03-02T00:59:24.617Z,1.95
2024-03-02T01:02:10.524Z,1.45
2024-03-02T01:04:56.855Z,1.40
2024-03-02T01:07:43.059Z,1.20
2024-03-02T01:10:29.331Z,2.17
2024-03-02T01:13:15.624Z,2.17
2024-03-02T01:16:02.415Z,1.70
2024-03-02T01:18:49.048Z,0.70
2024-03-02T01:21:35.750Z,1.55
2024-03-02T01:24:22.264Z,2.25
2024-03-02T01:27:09.072Z,1.13
2024-03-02T01:29:55.889Z,1.95
2024-03-02T01:32:41.986Z,1.08
2024-03-02T01:35:28.164Z,0.98
2024-03-02T01:38:14.399Z,1.55
2024-03-02T01:41:00.787Z,1.58
2024-03-02T01:43:47.100Z,1.15
2024-03-02T01:46:33.415Z,0.98
2024-03-02T01:49:20.096Z,1.80
2024-03-02T01:52:06.600Z,1.15
2024-03-02T01:54:53.282Z,2.08
2024-03-02T01:57:39.855Z,1.63
2024-03-02T02:00:28.270Z,1.15
2024-03-02T02:03:15.079Z,1.17
2024-03-02T02:06:01.345Z,1.98
2024-03-02T02:08:48.430Z,2.75
2024-03-02T02:11:35.132Z,1.23
2024-03-02T02:14:21.092Z,1.98
2024-03-02T02:17:07.857Z,1.60
2024-03-02T02:20:13.284Z,1.67
2024-03-02T02:23:03.449Z,0.90
2024-03-02T02:25:49.693Z,1.45
2024-03-02T02:28:36.113Z,0.82
2024-03-02T02:31:22.548Z,0.85
2024-03-02T02:34:09.170Z,1.17
2024-03-02T02:36:56.406Z,1.50
2024-03-02T02:39:42.764Z,0.93
2024-03-02T02:42:29.133Z,1.27
2024-03-02T02:45:16.512Z,1.25
2024-03-02T02:48:04.131Z,1.27
2024-03-02T02:51:08.906Z,1.67
2024-03-02T02:53:55.047Z,0.60
2024-03-02T02:56:41.518Z,1.23
2024-03-02T02:59:28.109Z,1.27
2024-03-02T03:02:14.154Z,1.05
2024-03-02T03:05:00.588Z,1.05
2024-03-02T03:07:47.005Z,1.27
2024-03-02T03:10:34.585Z,0.60
2024-03-02T03:13:20.578Z,0.90
2024-03-02T03:16:08.237Z,1.15
2024-03-02T03:18:54.920Z,0.85
2024-03-02T03:21:41.340Z,0.88
2024-03-02T03:24:27.695Z,1.30
2024-03-02T03:27:13.879Z,1.13
2024-03-02T03:30:00.271Z,1.08
2024-03-02T03:32:46.556Z,1.60
2024-03-02T03:35:33.200Z,0.85
2024-03-02T03:38:19.319Z,0.70
2024-03-02T03:41:05.912Z,1.05
2024-03-02T03:43:52.048Z,1.10
2024-03-02T03:46:38.502Z,0.80
2024-03-02T03:49:43.070Z,0.93
2024-03-02T03:52:29.475Z,1.17
2024-03-02T03:55:15.807Z,1.35
2024-03-02T03:58:02.190Z,1.60
2024-03-02T04:00:48.676Z,1.15
2024-03-02T04:03:35.080Z,0.88
2024-03-02T04:06:21.349Z,1.30
2024-03-02T04:09:07.524Z,1.50
2024-03-02T04:11:54.269Z,1.30
2024-03-02T04:14:40.252Z,0.88
2024-03-02T04:17:26.763Z,1.75
2024-03-02T04:20:13.957Z,1.48
2024-03-02T04:23:00.305Z,1.35
2024-03-02T04:25:46.792Z,1.85
2024-03-02T04:28:33.024Z,1.85
2024-03-02T04:31:19.326Z,1.67
2024-03-02T04:34:05.613Z,0.82
2024-03-02T04:36:51.977Z,0.80
2024-03-02T04:39:38.011Z,0.77
2024-03-02T04:42:24.410Z,0.70
2024-03-02T04:45:10.642Z,1.33
2024-03-02T04:47:56.990Z,0.60
2024-03-02T04:50:43.360Z,1.98
2024-03-02T04:53:29.650Z,1.65
2024-03-02T04:56:36.117Z,1.33
2024-03-02T04:59:22.517Z,1.02
2024-03-02T05:02:08.825Z,1.45
2024-03-02T05:04:55.653Z,2.28
2024-03-02T05:07:43.536Z,0.82
2024-03-02T05:10:29.555Z,3.03
2024-03-02T05:13:15.748Z,0.95
2024-03-02T05:16:02.197Z,1.52
2024-03-02T05:18:51.285Z,0.95
2024-03-02T05:21:37.498Z,2.17
2024-03-02T05:24:23.723Z,1.25
2024-03-02T05:27:10.321Z,1.95
2024-03-02T05:29:56.671Z,1.00
2024-03-02T05:32:42.920Z,0.68
2024-03-02T05:35:29.222Z,2.22
2024-03-02T05:38:15.474Z,1.30
2024-03-02T05:41:02.299Z,1.40
2024-03-02T05:43:48.977Z,1.20
2024-03-02T05:46:36.059Z,1.15
2024-03-02T05:49:41.345Z,1.50
2024-03-02T05:52:27.633Z,1.63
2024-03-02T05:55:16.130Z,1.48
2024-03-02T05:58:08.326Z,2.05
2024-03-02T06:00:55.929Z,2.22
2024-03-02T06:03:42.591Z,1.73
2024-03-02T06:06:28.808Z,1.13
2024-03-02T06:09:14.948Z,0.85
2024-03-02T06:12:01.695Z,0.90
2024-03-02T06:14:47.942Z,1.55
2024-03-02T06:17:34.327Z,0.90
2024-03-02T06:20:20.701Z,1.58
2024-03-02T06:23:06.997Z,0.95
2024-03-02T06:25:53.227Z,1.60
2024-03-02T06:28:39.835Z,0.82
2024-03-02T06:31:26.728Z,0.75
2024-03-02T06:34:13.158Z,1.52
2024-03-02T06:36:59.586Z,0.90
2024-03-02T06:39:45.702Z,0.60
2024-03-02T06:42:34.883Z,1.52
2024-03-02T06:45:21.401Z,1.33
2024-03-02T06:48:07.915Z,1.25
2024-03-02T06:50:53.736Z,0.75
2024-03-02T06:53:39.878Z,0.70
2024-03-02T06:56:26.235Z,1.65
2024-03-02T06:59:12.684Z,0.95
2024-03-02T07:01:59.327Z,0.88
2024-03-02T07:04:46.658Z,1.30
2024-03-02T07:07:33.108Z,0.70
2024-03-02T07:10:19.289Z,1.02
2024-03-02T07:13:05.631Z,1.13
2024-03-02T07:16:04.365Z,0.77
2024-03-02T07:18:53.462Z,1.20
2024-03-02T07:21:40.450Z,1.42
2024-03-02T07:24:26.906Z,0.68
2024-03-02T07:27:14.031Z,1.20
2024-03-02T07:30:00.121Z,1.25
2024-03-02T07:32:47.307Z,2.70
2024-03-02T07:35:33.624Z,1.60
2024-03-02T07:38:19.846Z,0.98
2024-03-02T07:41:06.322Z,1.90
2024-03-02T07:43:52.718Z,2.10
2024-03-02T07:46:38.848Z,1.33
2024-03-02T07:49:30.703Z,1.38
2024-03-02T07:52:17.265Z,1.35
2024-03-02T07:55:03.751Z,2.17
2024-03-02T07:57:50.002Z,1.23
2024-03-02T08:00:36.769Z,1.02
2024-03-02T08:03:23.087Z,1.10
2024-03-02T08:06:09.373Z,1.15
2024-03-02T08:08:56.086Z,0.75
2024-03-02T08:11:42.586Z,1.08
2024-03-02T08:14:28.869Z,0.85
2024-03-02T08:17:15.114Z,0.60
2024-03-02T08:20:01.427Z,0.70
2024-03-02T08:22:50.639Z,0.70
2024-03-02T08:25:36.891Z,1.20
2024-03-02T08:28:24.301Z,1.02
2024-03-02T08:31:11.194Z,0.70
2024-03-02T08:33:58.345Z,1.65
2024-03-02T08:36:44.535Z,0.60
2024-03-02T08:39:30.901Z,0.50
2024-03-02T08:42:17.138Z,1.60
2024-03-02T08:45:03.640Z,0.90
2024-03-02T08:47:49.754Z,0.80
2024-03-02T08:50:36.455Z,1.35
2024-03-02T08:53:22.661Z,1.42
2024-03-02T08:56:09.107Z,0.70
2024-03-02T08:58:56.620Z,0.90
2024-03-02T09:01:43.264Z,0.88
2024-03-02T09:04:32.575Z,0.93
2024-03-02T09:07:21.007Z,2.33
2024-03-02T09:10:07.571Z,0.98
2024-03-02T09:12:53.849Z,2.45
2024-03-02T09:15:41.110Z,2.90
2024-03-02T09:18:27.580Z,1.23
2024-03-02T09:21:13.515Z,1.00
2024-03-02T09:24:00.566Z,1.23
2024-03-02T09:26:46.898Z,0.68
2024-03-02T09:29:33.240Z,0.70
2024-03-02T09:32:19.562Z,0.95
2024-03-02T09:35:06.125Z,1.40
2024-03-02T09:37:52.646Z,1.02
2024-03-02T09:41:32.249Z,1.98
2024-03-02T09:44:22.295Z,0.60
2024-03-02T09:47:09.542Z,2.42
2024-03-02T09:49:57.178Z,1.77
2024-03-02T09:52:45.192Z,1.35
2024-03-02T09:55:31.691Z,1.58
2024-03-02T09:58:18.348Z,1.13
2024-03-02T10:01:11.585Z,1.10
2024-03-02T10:04:01.293Z,1.80
2024-03-02T10:06:53.866Z,0.80
2024-03-02T10:09:41.180Z,2.15
2024-03-02T10:16:14.306Z,0.73
2024-03-02T10:19:25.642Z,0.70
2024-03-02T10:22:30.906Z,1.85
2024-03-02T10:25:39.582Z,1.00
2024-03-02T10:28:31.662Z,1.23
2024-03-02T10:31:18.729Z,1.73
2024-03-02T10:34:05.524Z,1.25
2024-03-02T10:36:52.486Z,1.17
2024-03-02T10:39:41.552Z,1.58
2024-03-02T10:42:28.883Z,2.25
2024-03-02T10:45:37.937Z,1.92
2024-03-02T10:48:25.712Z,1.50
2024-03-02T10:51:12.690Z,1.83
2024-03-02T10:53:59.865Z,1.15
2024-03-02T10:56:47.931Z,1.48
2024-03-02T10:59:34.777Z,1.45
2024-03-02T11:02:23.238Z,1.30
2024-03-02T11:05:11.443Z,1.77
2024-03-02T11:08:05.625Z,2.85
2024-03-02T11:10:53.907Z,1.65
2024-03-02T11:13:43.604Z,3.50
2024-03-02T11:16:36.925Z,2.15
2024-03-02T11:19:23.674Z,4.72
2024-03-02T11:22:10.357Z,3.05
2024-03-02T11:25:01.264Z,4.97
2024-03-02T11:27:47.716Z,2.97
2024-03-02T11:30:34.619Z,2.78
2024-03-02T11:33:25.950Z,2.28
2024-03-02T11:36:13.027Z,2.42
2024-03-02T11:39:02.385Z,1.95
2024-03-02T11:41:50.103Z,2.85
2024-03-02T11:44:36.729Z,3.50
2024-03-02T11:47:23.078Z,5.22
2024-03-02T11:50:09.706Z,4.30
2024-03-02T11:52:57.661Z,3.33
2024-03-02T11:55:50.556Z,7.05
2024-03-02T11:58:37.765Z,4.30
2024-03-02T12:01:27.095Z,2.88
2024-03-02T12:04:14.609Z,2.63
2024-03-02T12:07:02.074Z,2.33
2024-03-02T12:09:48.759Z,2.13
2024-03-02T12:12:34.886Z,1.98
2024-03-02T12:15:40.564Z,1.95
2024-03-02T12:18:27.336Z,1.15
2024-03-02T12:21:14.360Z,2.03
2024-03-02T12:24:02.708Z,1.90
2024-03-02T12:26:49.810Z,1.67
2024-03-02T12:29:36.632Z,1.60
2024-03-02T12:32:23.461Z,1.40
2024-03-02T12:35:14.551Z,2.10
2024-03-02T12:38:02.536Z,1.20
2024-03-02T12:40:50.295Z,1.05
2024-03-02T12:43:36.750Z,1.80
2024-03-02T12:46:23.298Z,1.45
2024-03-02T12:49:13.921Z,1.10
2024-03-02T12:52:00.506Z,1.23
2024-03-02T12:54:46.947Z,2.47
2024-03-02T12:57:34.195Z,1.85
2024-03-02T13:00:24.083Z,1.13
2024-03-02T13:03:13.287Z,1.40
2024-03-02T13:05:59.863Z,1.45
2024-03-02T13:08:46.456Z,2.88
2024-03-02T13:11:32.861Z,2.00
2024-03-02T13:14:19.148Z,1.75
2024-03-02T13:17:06.829Z,2.22
2024-03-02T13:19:56.627Z,3.25
2024-03-02T13:22:43.401Z,2.10
2024-03-02T13:25:33.627Z,1.30
2024-03-02T13:28:23.190Z,2.65
2024-03-02T13:31:09.469Z,2.70
2024-03-02T13:33:55.852Z,2.03
2024-03-02T13:36:42.475Z,3.65
2024-03-02T13:39:28.593Z,1.42
2024-03-02T13:42:16.464Z,2.42
2024-03-02T13:45:03.013Z,3.22
2024-03-02T13:47:49.069Z,2.25
2024-03-02T13:50:35.357Z,2.80
2024-03-02T13:53:22.214Z,3.97
2024-03-02T13:56:08.598Z,2.30
2024-03-02T13:58:54.898Z,3.42
2024-03-02T14:01:41.519Z,2.45
2024-03-02T14:04:27.961Z,3.25
2024-03-02T14:07:14.357Z,1.10
2024-03-02T14:10:00.680Z,2.05
2024-03-02T14:12:46.891Z,1.15
2024-03-02T14:15:33.504Z,1.77
2024-03-02T14:18:19.756Z,3.30
2024-03-02T14:21:08.809Z,1.98
2024-03-02T14:23:55.913Z,0.80
2024-03-02T14:26:42.410Z,1.63
2024-03-02T14:29:29.021Z,1.85
2024-03-02T14:32:15.335Z,0.95
2024-03-02T14:35:01.878Z,2.08
2024-03-02T14:37:48.007Z,2.83
2024-03-02T14:40:34.575Z,1.23
2024-03-02T14:43:21.384Z,3.08
2024-03-02T14:46:09.940Z,2.22
2024-03-02T14:48:56.815Z,2.05
2024-03-02T14:51:43.191Z,1.85
2024-03-02T14:54:29.493Z,1.50
2024-03-02T14:57:15.934Z,1.40
2024-03-02T15:00:02.516Z,1.40
2024-03-02T15:02:53.317Z,1.52
2024-03-02T15:05:41.347Z,2.05
2024-03-02T15:08:27.462Z,1.70
2024-03-02T15:11:13.957Z,1.55
2024-03-02T15:14:00.360Z,1.65
2024-03-02T15:16:46.736Z,2.05
2024-03-02T15:19:33.654Z,1.55
2024-03-02T15:22:19.799Z,2.38
2024-03-02T15:25:06.536Z,2.80
2024-03-02T15:27:53.105Z,3.30
2024-03-02T15:30:39.388Z,2.15
2024-03-02T15:33:30.821Z,2.25
2024-03-02T15:36:16.991Z,6.43
2024-03-02T15:39:04.290Z,2.80
2024-03-02T15:41:50.654Z,1.83
2024-03-02T15:44:37.297Z,1.60
2024-03-02T15:47:23.463Z,2.35
2024-03-02T15:50:10.373Z,2.28
2024-03-02T15:53:04.447Z,1.63
2024-03-02T15:55:51.315Z,3.35
2024-03-02T15:58:38.617Z,4.03
2024-03-02T16:01:44.833Z,4.72
2024-03-02T16:04:31.488Z,2.67
2024-03-02T16:07:17.838Z,5.05
2024-03-02T16:10:06.053Z,4.55
2024-03-02T16:12:53.238Z,4.95
2024-03-02T16:15:39.471Z,10.07
2024-03-02T16:18:26.538Z,23.92
2024-03-02T16:21:15.941Z,25.40
2024-03-02T16:24:02.550Z,12.95
2024-03-02T16:26:48.963Z,11.02
2024-03-02T16:29:35.362Z,4.68
2024-03-02T16:32:21.796Z,4.25
2024-03-02T16:35:08.151Z,6.60
2024-03-02T16:37:54.716Z,2.53
2024-03-02T16:40:41.611Z,5.15
2024-03-02T16:43:46.966Z,5.72
2024-03-02T16:46:33.544Z,4.55
2024-03-02T16:49:19.663Z,4.40
2024-03-02T16:52:06.457Z,4.57
2024-03-02T16:54:53.473Z,3.88
2024-03-02T16:57:39.768Z,36.78
2024-03-02T17:00:26.583Z,19.02
2024-03-02T17:03:13.466Z,21.00
2024-03-02T17:05:59.664Z,18.05
2024-03-02T17:08:46.259Z,14.32
2024-03-02T17:11:32.458Z,18.95
2024-03-02T17:14:18.752Z,15.73
2024-03-02T17:17:05.295Z,22.50
2024-03-02T17:19:51.640Z,13.98
2024-03-02T17:22:37.904Z,23.83
2024-03-02T17:25:24.413Z,11.15
2024-03-02T17:28:31.364Z,8.18
2024-03-02T17:31:19.237Z,14.75
2024-03-02T17:34:05.580Z,12.07
2024-03-02T17:36:52.137Z,10.23
2024-03-02T17:39:38.184Z,7.47
2024-03-02T17:42:42.864Z,9.57
2024-03-02T17:45:29.166Z,6.47
2024-03-02T17:48:16.306Z,5.57
2024-03-02T17:51:02.819Z,3.95
2024-03-02T17:53:52.832Z,19.10
2024-03-02T17:56:39.155Z,12.05
2024-03-02T17:59:25.411Z,55.15
2024-03-02T18:02:11.645Z,14.45
2024-03-02T18:04:59.615Z,18.33
2024-03-02T18:07:46.019Z,9.38
2024-03-02T18:10:33.099Z,15.68
2024-03-02T18:13:19.330Z,11.88
2024-03-02T18:16:05.952Z,11.20
2024-03-02T18:18:52.189Z,8.90
2024-03-02T18:21:38.758Z,4.88
2024-03-02T18:24:29.105Z,13.45
2024-03-02T18:27:15.780Z,5.78
2024-03-02T18:30:01.842Z,27.60
2024-03-02T18:32:48.800Z,9.43
2024-03-02T18:35:34.921Z,5.80
2024-03-02T18:38:20.884Z,5.38
2024-03-02T18:41:07.278Z,9.65
2024-03-02T18:43:53.591Z,8.10
2024-03-02T18:46:39.983Z,7.22
2024-03-02T18:49:26.569Z,9.43
2024-03-02T18:52:13.041Z,7.85
2024-03-02T18:54:59.485Z,5.70
2024-03-02T18:57:45.600Z,7.57
2024-03-02T19:00:50.574Z,14.27
2024-03-02T19:03:45.178Z,9.65
2024-03-02T19:06:31.460Z,8.95
2024-03-02T19:09:17.769Z,11.13
2024-03-02T19:12:04.112Z,6.78
2024-03-02T19:14:50.764Z,11.23
2024-03-02T19:17:37.360Z,10.73
2024-03-02T19:20:24.880Z,11.32
2024-03-02T19:23:14.747Z,6.20
2024-03-02T19:26:07.326Z,6.72
2024-03-02T19:28:56.615Z,9.73
2024-03-02T19:31:42.798Z,14.57
2024-03-02T19:34:34.882Z,6.32
2024-03-02T19:37:24.872Z,7.72
2024-03-02T19:40:11.942Z,12.95
2024-03-02T19:42:58.484Z,13.90
2024-03-02T19:45:48.461Z,9.05
2024-03-02T19:48:34.737Z,9.50
2024-03-02T19:51:21.017Z,4.70
2024-03-02T19:54:09.765Z,3.25
2024-03-02T19:56:59.570Z,7.05
2024-03-02T19:59:47.182Z,4.13
2024-03-02T20:02:33.160Z,5.20
2024-03-02T20:05:20.169Z,3.22
2024-03-02T20:08:08.675Z,1.95
2024-03-02T20:10:54.801Z,5.03
2024-03-02T20:13:40.982Z,6.80
2024-03-02T20:16:29.713Z,4.03
2024-03-02T20:19:17.969Z,6.03
2024-03-02T20:22:04.175Z,8.70
2024-03-02T20:24:56.159Z,8.85
2024-03-02T20:27:43.406Z,12.15
2024-03-02T20:33:51.163Z,3.28
2024-03-02T20:36:43.088Z,3.25
2024-03-02T20:39:50.647Z,1.75
2024-03-02T20:42:41.551Z,2.83
2024-03-02T20:45:27.987Z,4.22
2024-03-02T20:48:16.867Z,6.47
2024-03-02T20:51:13.359Z,6.50
2024-03-02T20:54:01.183Z,8.32
2024-03-02T20:57:18.527Z,3.28
2024-03-02T21:00:10.953Z,2.33
2024-03-02T21:03:15.702Z,2.78
2024-03-02T21:06:02.352Z,4.18
2024-03-02T21:08:48.545Z,4.28
2024-03-02T21:11:58.409Z,3.17
2024-03-02T21:14:49.652Z,3.75
2024-03-02T21:17:39.029Z,3.13
2024-03-02T21:20:33.888Z,4.82
2024-03-02T21:23:24.226Z,3.78
2024-03-02T21:26:14.330Z,2.75
2024-03-02T21:29:12.461Z,4.60
2024-03-02T21:32:10.188Z,6.30
2024-03-02T21:34:58.549Z,4.20
2024-03-02T21:37:47.990Z,5.07
2024-03-02T21:44:12.747Z,4.50
2024-03-02T21:47:09.344Z,7.15
2024-03-02T21:50:04.996Z,4.60
2024-03-02T21:52:56.426Z,5.63
2024-03-02T21:55:46.588Z,1.88
2024-03-02T21:58:34.307Z,4.60
2024-03-02T22:01:21.682Z,12.10
2024-03-02T22:04:08.910Z,5.95
2024-03-02T22:07:00.451Z,6.10
2024-03-02T22:09:46.898Z,6.22
2024-03-02T22:12:35.922Z,5.28
2024-03-02T22:15:24.774Z,4.03
2024-03-02T22:18:24.803Z,11.13
2024-03-02T22:21:10.924Z,6.07
2024-03-02T22:23:59.323Z,6.28
2024-03-02T22:26:47.143Z,4.55
2024-03-02T22:29:33.317Z,9.85
2024-03-02T22:32:22.868Z,8.07
2024-03-02T22:35:09.205Z,7.57
2024-03-02T22:37:58.433Z,4.20
2024-03-02T22:40:45.141Z,7.28
2024-03-02T22:43:34.416Z,4.80
2024-03-02T22:46:20.584Z,5.55
2024-03-02T22:49:08.752Z,7.40
2024-03-02T22:51:55.170Z,6.55
2024-03-02T22:54:41.440Z,4.75
2024-03-02T22:57:27.856Z,3.47
2024-03-02T23:00:34.247Z,6.38
2024-03-02T23:03:20.755Z,4.75
2024-03-02T23:06:10.099Z,6.85
2024-03-02T23:08:56.293Z,6.97
2024-03-02T23:11:44.302Z,1.83
2024-03-02T23:14:30.631Z,2.65
2024-03-02T23:17:19.657Z,5.07
2024-03-02T23:20:07.090Z,3.17
2024-03-02T23:22:55.708Z,2.83
2024-03-02T23:25:44.970Z,2.22
2024-03-02T23:28:31.235Z,4.03
2024-03-02T23:31:19.765Z,2.58
2024-03-02T23:34:09.174Z,2.20
2024-03-02T23:36:56.909Z,2.45
2024-03-02T23:39:59.944Z,2.85
2024-03-02T23:42:46.259Z,3.92
2024-03-02T23:45:33.130Z,3.25
2024-03-02T23:48:19.263Z,2.55
2024-03-02T23:51:09.555Z,3.30
2024-03-02T23:53:56.658Z,2.80
2024-03-02T23:56:43.869Z,2.10
2024-03-02T23:59:31.172Z,3.42
